Time;durP1;ratioP1;P1;durP2;ratioP2;P2;SDS_P1;SDS_P2;PMS_P1;PMS_P2;Temp;Humidity;BMP_temperature;BMP_pressure;BME280_temperature;BME280_humidity;BME280_pressure;Samples;Min_cycle;Max_cycle;Signal;HPM_P1;HPM_P2
2024/02/27 00:02:01;;;;;;;5.05;2.90;;;3.60;99.90;;;;;;5044031;28;20101;-70
2024/02/27 00:04:27;;;;;;;8.25;2.90;;;3.60;99.90;;;;;;5066818;28;20509;-70
2024/02/27 00:06:54;;;;;;;6.40;2.88;;;3.60;99.90;;;;;;5047988;28;20036;-70
2024/02/27 00:09:21;;;;;;;4.32;3.00;;;3.60;99.90;;;;;;5047970;28;20048;-70
2024/02/27 00:11:48;;;;;;;7.63;3.45;;;3.60;99.90;;;;;;5056552;28;20455;-70
2024/02/27 00:14:13;;;;;;;8.05;3.72;;;3.60;99.90;;;;;;5055313;28;20047;-70
2024/02/27 00:16:39;;;;;;;6.95;3.20;;;3.60;99.90;;;;;;5057791;28;20032;-70
2024/02/27 00:19:05;;;;;;;4.45;3.15;;;3.60;99.90;;;;;;5046187;28;20126;-70
2024/02/27 00:21:31;;;;;;;5.65;3.60;;;3.60;99.90;;;;;;5044185;28;20095;-70
2024/02/27 00:23:57;;;;;;;6.75;4.10;;;3.60;99.90;;;;;;5045888;28;20512;-70
2024/02/27 00:26:23;;;;;;;7.88;3.63;;;3.60;99.90;;;;;;5060647;28;20045;-70
2024/02/27 00:28:49;;;;;;;7.50;3.35;;;3.60;99.90;;;;;;5062234;28;20040;-70
2024/02/27 00:31:15;;;;;;;7.72;4.38;;;3.60;99.90;;;;;;5063534;28;20058;-71
2024/02/27 00:33:41;;;;;;;13.30;4.00;;;3.50;99.90;;;;;;5058034;28;20505;-70
2024/02/27 00:36:07;;;;;;;4.97;3.42;;;3.50;99.90;;;;;;5063693;28;20052;-71
2024/02/27 00:38:33;;;;;;;4.80;4.07;;;3.50;99.90;;;;;;5070201;28;20043;-70
2024/02/27 00:41:02;;;;;;;8.15;4.10;;;3.60;99.90;;;;;;5074402;28;20436;-70
2024/02/27 00:43:28;;;;;;;7.20;3.97;;;3.60;99.90;;;;;;5051395;28;20079;-70
2024/02/27 00:45:54;;;;;;;10.18;4.80;;;3.60;99.90;;;;;;5062040;28;20125;-70
2024/02/27 00:48:20;;;;;;;10.95;4.07;;;3.50;99.90;;;;;;5061003;28;20052;-70
2024/02/27 00:50:47;;;;;;;4.82;3.40;;;3.50;99.90;;;;;;5049263;28;20508;-70
2024/02/27 00:53:13;;;;;;;8.45;4.10;;;3.50;99.90;;;;;;5067297;28;20052;-70
2024/02/27 00:55:39;;;;;;;8.63;4.32;;;3.50;99.90;;;;;;5051082;28;20044;-70
2024/02/27 00:58:05;;;;;;;7.18;4.47;;;3.50;99.90;;;;;;5066036;28;20089;-70
2024/02/27 01:00:31;;;;;;;6.65;4.50;;;3.60;99.90;;;;;;5086030;28;20106;-70
2024/02/27 01:02:57;;;;;;;8.63;4.10;;;3.60;99.90;;;;;;5061463;28;20484;-71
2024/02/27 01:05:23;;;;;;;7.03;4.60;;;3.60;99.90;;;;;;5063923;28;20056;-70
2024/02/27 01:07:49;;;;;;;8.45;4.70;;;3.50;99.90;;;;;;5090470;28;20511;-70
2024/02/27 01:10:14;;;;;;;5.53;4.38;;;3.50;99.90;;;;;;5065750;28;20518;-70
2024/02/27 01:12:40;;;;;;;11.75;4.93;;;3.50;99.90;;;;;;5064644;28;20055;-70
2024/02/27 01:15:06;;;;;;;8.45;5.25;;;3.50;99.90;;;;;;5062666;28;20032;-70
2024/02/27 01:17:32;;;;;;;10.63;4.72;;;3.50;99.90;;;;;;5041020;28;20134;-70
2024/02/27 01:19:58;;;;;;;9.32;5.28;;;3.60;99.90;;;;;;5033026;28;20143;-70
2024/02/27 01:22:28;;;;;;;8.02;5.40;;;3.50;99.90;;;;;;5065215;28;20573;-70
2024/02/27 01:24:58;;;;;;;9.82;5.35;;;3.50;99.90;;;;;;5058270;28;20047;-70
2024/02/27 01:27:25;;;;;;;9.55;5.95;;;3.50;99.90;;;;;;5047844;28;20063;-70
2024/02/27 01:29:52;;;;;;;8.00;4.65;;;3.50;99.90;;;;;;5052545;28;20145;-70
2024/02/27 01:32:18;;;;;;;13.10;5.97;;;3.50;99.90;;;;;;5036988;28;20049;-70
2024/02/27 01:34:43;;;;;;;9.80;5.07;;;3.50;99.90;;;;;;5046921;28;20051;-70
2024/02/27 01:37:09;;;;;;;11.65;5.53;;;3.60;99.90;;;;;;5065469;28;20141;-70
2024/02/27 01:39:35;;;;;;;11.02;5.63;;;3.60;99.90;;;;;;5055227;28;21168;-70
2024/02/27 01:42:01;;;;;;;7.15;5.10;;;3.60;99.90;;;;;;5035821;28;20128;-70
2024/02/27 01:44:27;;;;;;;10.18;6.13;;;3.50;99.90;;;;;;5051875;28;20110;-70
2024/02/27 01:46:53;;;;;;;8.13;5.35;;;3.40;99.90;;;;;;5054231;28;20048;-71
2024/02/27 01:49:20;;;;;;;7.72;5.13;;;3.50;99.90;;;;;;5057824;28;20052;-70
2024/02/27 01:51:47;;;;;;;9.35;5.38;;;3.50;99.90;;;;;;5049713;28;20048;-70
2024/02/27 01:54:17;;;;;;;10.07;6.00;;;3.40;99.90;;;;;;5045506;28;20070;-70
2024/02/27 01:56:45;;;;;;;8.77;6.00;;;3.40;99.90;;;;;;5047894;28;20044;-70
2024/02/27 01:59:12;;;;;;;12.20;5.18;;;3.50;99.90;;;;;;5058416;28;20054;-70
2024/02/27 02:01:41;;;;;;;11.52;5.85;;;3.60;99.90;;;;;;5035682;28;20043;-70
2024/02/27 02:04:11;;;;;;;9.82;5.50;;;3.60;99.90;;;;;;5068331;28;20059;-70
2024/02/27 02:06:38;;;;;;;10.27;5.07;;;3.60;99.90;;;;;;5049207;28;20417;-70
2024/02/27 02:09:04;;;;;;;11.80;5.60;;;3.60;99.90;;;;;;5036473;28;20127;-71
2024/02/27 02:11:30;;;;;;;14.85;6.00;;;3.60;99.90;;;;;;5043675;28;20116;-70
2024/02/27 02:13:57;;;;;;;19.35;5.70;;;3.60;99.90;;;;;;5044548;28;20075;-70
2024/02/27 02:16:22;;;;;;;9.73;5.07;;;3.60;99.90;;;;;;5052838;28;20052;-70
2024/02/27 02:18:48;;;;;;;10.45;5.95;;;3.60;99.90;;;;;;5044968;28;20151;-70
2024/02/27 02:21:14;;;;;;;10.02;5.47;;;3.60;99.90;;;;;;5047598;28;20052;-70
2024/02/27 02:23:42;;;;;;;12.73;6.03;;;3.50;99.90;;;;;;5054518;28;20375;-70
2024/02/27 02:26:08;;;;;;;13.05;5.72;;;3.50;99.90;;;;;;5076030;28;20275;-71
2024/02/27 02:28:34;;;;;;;14.32;5.30;;;3.50;99.90;;;;;;5059384;28;20119;-70
2024/02/27 02:31:00;;;;;;;10.20;5.53;;;3.50;99.90;;;;;;5053884;28;20477;-70
2024/02/27 02:33:27;;;;;;;9.05;4.80;;;3.50;99.90;;;;;;5027688;28;20530;-70
2024/02/27 02:35:53;;;;;;;12.05;5.05;;;3.60;99.90;;;;;;5058606;28;20726;-70
2024/02/27 02:38:19;;;;;;;9.77;5.30;;;3.50;99.90;;;;;;5030274;28;20041;-70
2024/02/27 02:40:45;;;;;;;10.95;5.30;;;3.50;99.90;;;;;;5057461;28;20338;-70
2024/02/27 02:43:10;;;;;;;14.98;5.03;;;3.50;99.90;;;;;;5039525;28;20044;-70
2024/02/27 02:45:37;;;;;;;6.82;3.92;;;3.50;99.90;;;;;;5030989;28;20088;-71
2024/02/27 02:48:03;;;;;;;10.82;4.88;;;3.50;99.90;;;;;;5052783;28;20422;-70
2024/02/27 02:50:31;;;;;;;10.02;4.95;;;3.50;99.90;;;;;;5049353;28;20506;-70
2024/02/27 02:52:58;;;;;;;8.65;4.43;;;3.60;99.90;;;;;;5049500;28;20184;-71
2024/02/27 02:55:23;;;;;;;10.55;4.70;;;3.70;99.90;;;;;;5049732;28;20613;-70
2024/02/27 02:57:49;;;;;;;8.70;4.65;;;3.70;99.90;;;;;;5053102;28;20087;-71
2024/02/27 03:00:15;;;;;;;13.32;5.25;;;3.80;99.90;;;;;;5026523;28;20049;-71
2024/02/27 03:02:41;;;;;;;11.70;4.80;;;3.80;99.90;;;;;;5045765;28;20090;-70
2024/02/27 03:05:12;;;;;;;14.45;5.28;;;3.80;99.90;;;;;;5042523;28;20061;-70
2024/02/27 03:07:41;;;;;;;;;;;3.70;99.90;;;;;;5034395;28;20052;-71
2024/02/27 03:10:10;;;;;;;10.35;3.85;;;3.70;99.90;;;;;;5062357;28;20599;-70
2024/02/27 03:12:43;;;;;;;9.93;4.95;;;3.80;99.90;;;;;;5066540;28;20482;-70
2024/02/27 03:15:09;;;;;;;10.93;4.22;;;3.80;99.90;;;;;;5058551;28;20048;-70
2024/02/27 03:17:35;;;;;;;6.03;3.67;;;3.80;99.90;;;;;;5046154;28;20050;-70
2024/02/27 03:20:01;;;;;;;8.05;4.25;;;3.70;99.90;;;;;;5060384;28;20047;-70
2024/02/27 03:22:27;;;;;;;8.77;4.47;;;3.80;99.90;;;;;;5053528;28;20097;-71
2024/02/27 03:24:52;;;;;;;14.02;4.95;;;3.80;99.90;;;;;;5050822;28;20413;-70
2024/02/27 03:27:18;;;;;;;10.57;4.60;;;3.80;99.90;;;;;;5048314;28;20051;-71
2024/02/27 03:29:44;;;;;;;7.07;4.10;;;3.80;99.90;;;;;;5076296;28;20500;-70
2024/02/27 03:32:10;;;;;;;10.75;4.32;;;3.80;99.90;;;;;;5061157;28;20059;-70
2024/02/27 03:34:35;;;;;;;14.15;5.13;;;3.80;99.90;;;;;;5065790;28;20670;-70
2024/02/27 03:37:02;;;;;;;10.00;3.95;;;3.70;99.90;;;;;;5058454;28;20127;-71
2024/02/27 03:39:28;;;;;;;9.88;4.82;;;3.70;99.90;;;;;;5065716;28;20060;-70
2024/02/27 03:41:54;;;;;;;10.75;4.28;;;3.60;99.90;;;;;;5065032;28;20055;-71
2024/02/27 03:44:19;;;;;;;6.93;4.30;;;3.60;99.90;;;;;;5060104;28;20048;-71
2024/02/27 03:46:45;;;;;;;13.07;3.95;;;3.70;99.90;;;;;;5065794;28;20050;-71
2024/02/27 03:49:11;;;;;;;8.43;3.70;;;3.60;99.90;;;;;;5039798;28;20569;-71
2024/02/27 03:51:37;;;;;;;11.57;4.50;;;3.50;99.90;;;;;;5017897;28;20486;-71
2024/02/27 03:54:03;;;;;;;9.30;4.18;;;3.60;99.90;;;;;;5054038;28;20045;-71
2024/02/27 03:56:30;;;;;;;4.45;3.67;;;3.60;99.90;;;;;;5048218;28;20047;-71
2024/02/27 03:58:55;;;;;;;8.88;5.07;;;3.60;99.90;;;;;;5060645;28;20147;-70
2024/02/27 04:01:21;;;;;;;11.88;4.28;;;3.60;99.90;;;;;;5061817;28;20059;-71
2024/02/27 04:03:47;;;;;;;11.52;4.75;;;3.60;99.90;;;;;;5060366;28;20490;-70
2024/02/27 04:06:13;;;;;;;8.63;4.40;;;3.60;99.90;;;;;;5036471;28;20059;-70
2024/02/27 04:08:39;;;;;;;10.18;4.68;;;3.60;99.90;;;;;;5068354;28;20144;-71
2024/02/27 04:11:05;;;;;;;8.27;4.75;;;3.50;99.90;;;;;;5063400;28;20190;-71
2024/02/27 04:13:30;;;;;;;8.85;3.60;;;3.50;99.90;;;;;;5050574;28;20040;-71
2024/02/27 04:15:56;;;;;;;9.25;3.78;;;3.60;99.90;;;;;;5055664;28;20056;-71
2024/02/27 04:18:22;;;;;;;13.95;4.38;;;3.60;99.90;;;;;;5033477;28;20043;-70
2024/02/27 04:20:49;;;;;;;8.00;3.78;;;3.60;99.90;;;;;;5050593;28;20382;-70
2024/02/27 04:23:14;;;;;;;9.13;4.45;;;3.50;99.90;;;;;;5056845;28;20482;-70
2024/02/27 04:25:40;;;;;;;13.02;4.15;;;3.60;99.90;;;;;;5041584;28;20051;-71
2024/02/27 04:28:06;;;;;;;9.93;4.38;;;3.60;99.90;;;;;;5053589;28;20048;-71
2024/02/27 04:30:32;;;;;;;5.45;4.32;;;3.70;99.90;;;;;;5044690;28;20048;-70
2024/02/27 04:32:58;;;;;;;7.65;3.88;;;3.70;99.90;;;;;;5058180;28;20467;-71
2024/02/27 04:35:24;;;;;;;12.13;4.78;;;3.80;99.90;;;;;;5062718;28;20496;-71
2024/02/27 04:37:50;;;;;;;6.28;4.38;;;3.80;99.90;;;;;;5054331;28;20135;-71
2024/02/27 04:40:16;;;;;;;7.18;4.65;;;3.80;99.90;;;;;;5060067;28;20044;-71
2024/02/27 04:42:42;;;;;;;15.25;6.15;;;3.80;99.90;;;;;;5043317;28;20106;-71
2024/02/27 04:45:08;;;;;;;8.25;5.07;;;3.90;99.90;;;;;;5060823;28;20549;-71
2024/02/27 04:47:33;;;;;;;8.30;5.05;;;3.90;99.90;;;;;;5057274;28;20092;-71
2024/02/27 04:49:59;;;;;;;11.82;5.93;;;3.80;99.90;;;;;;5047183;28;20060;-71
2024/02/27 04:52:25;;;;;;;11.73;5.15;;;3.80;99.90;;;;;;5036704;28;20434;-71
2024/02/27 04:54:51;;;;;;;8.52;5.43;;;3.90;99.90;;;;;;5025943;28;20435;-71
2024/02/27 04:57:16;;;;;;;13.77;5.30;;;3.80;99.90;;;;;;5069298;28;20871;-71
2024/02/27 04:59:42;;;;;;;14.73;4.80;;;3.80;99.90;;;;;;5053546;28;20525;-71
2024/02/27 05:02:08;;;;;;;8.50;5.72;;;3.90;99.90;;;;;;5047572;28;20525;-71
2024/02/27 05:04:34;;;;;;;9.75;4.93;;;3.90;99.90;;;;;;5051327;28;20048;-71
2024/02/27 05:06:59;;;;;;;8.15;5.05;;;3.90;99.90;;;;;;5078062;28;20051;-72
2024/02/27 05:09:25;;;;;;;9.73;5.00;;;4.00;99.90;;;;;;5061493;28;20564;-71
2024/02/27 05:11:51;;;;;;;11.23;5.30;;;4.00;99.90;;;;;;5063177;28;20452;-71
2024/02/27 05:14:17;;;;;;;8.43;5.03;;;4.10;99.90;;;;;;5054499;28;20047;-71
2024/02/27 05:16:42;;;;;;;10.85;4.63;;;4.00;99.90;;;;;;5056472;28;20115;-72
2024/02/27 05:19:09;;;;;;;8.93;4.82;;;4.10;99.90;;;;;;5049573;28;20052;-71
2024/02/27 05:21:35;;;;;;;13.45;5.75;;;4.10;99.90;;;;;;5034948;28;20048;-71
2024/02/27 05:24:01;;;;;;;13.48;6.65;;;4.10;99.90;;;;;;5023549;28;20044;-71
2024/02/27 05:26:27;;;;;;;11.52;5.38;;;4.20;99.90;;;;;;5059737;28;20048;-71
2024/02/27 05:28:52;;;;;;;12.95;5.55;;;4.20;99.90;;;;;;5041625;28;20437;-71
2024/02/27 05:31:29;;;;;;;13.75;6.35;;;4.20;99.90;;;;;;5052352;28;20503;-71
2024/02/27 05:33:57;;;;;;;10.05;5.22;;;4.20;99.90;;;;;;5055176;28;20474;-71
2024/02/27 05:36:24;;;;;;;9.80;5.18;;;4.20;99.90;;;;;;5065490;28;20044;-71
2024/02/27 05:38:50;;;;;;;9.95;6.30;;;4.20;99.90;;;;;;5053344;28;20045;-71
2024/02/27 05:41:18;;;;;;;11.40;5.95;;;4.30;99.90;;;;;;5046487;28;20048;-71
2024/02/27 05:43:44;;;;;;;10.75;5.95;;;4.40;99.90;;;;;;5032556;28;20040;-71
2024/02/27 05:46:10;;;;;;;8.77;5.40;;;4.40;99.90;;;;;;5053127;28;20446;-71
2024/02/27 05:48:40;;;;;;;11.95;5.88;;;4.30;99.90;;;;;;5044742;28;20408;-71
2024/02/27 05:51:06;;;;;;;12.90;6.00;;;4.30;99.90;;;;;;5032881;28;20463;-71
2024/02/27 05:53:35;;;;;;;7.90;5.40;;;4.30;99.90;;;;;;5064831;28;20078;-72
2024/02/27 05:56:02;;;;;;;10.55;5.32;;;4.30;99.90;;;;;;5061841;28;20058;-71
2024/02/27 05:58:28;;;;;;;7.65;5.32;;;4.30;99.90;;;;;;5068617;28;20140;-72
2024/02/27 06:00:55;;;;;;;11.63;6.55;;;4.30;99.90;;;;;;5055878;28;20044;-71
2024/02/27 06:03:21;;;;;;;11.60;6.22;;;4.30;99.90;;;;;;5037591;28;20040;-71
2024/02/27 06:05:48;;;;;;;7.53;5.32;;;4.30;99.90;;;;;;5051671;28;20788;-71
2024/02/27 06:08:14;;;;;;;9.07;5.78;;;4.30;99.90;;;;;;5051554;28;20395;-71
2024/02/27 06:10:41;;;;;;;11.18;5.80;;;4.30;99.90;;;;;;5058871;28;20056;-71
2024/02/27 06:13:10;;;;;;;8.82;5.38;;;4.30;99.90;;;;;;5059054;28;20061;-71
2024/02/27 06:15:36;;;;;;;7.67;5.60;;;4.20;99.90;;;;;;5031681;28;20041;-72
2024/02/27 06:18:02;;;;;;;8.00;5.40;;;4.20;99.90;;;;;;5041955;28;20040;-71
2024/02/27 06:23:13;;;;;;;11.45;5.60;;;4.30;99.90;;;;;;5049506;28;20056;-72
2024/02/27 06:25:39;;;;;;;6.55;5.65;;;4.20;99.90;;;;;;5049300;28;20387;-71
2024/02/27 06:28:05;;;;;;;8.35;5.50;;;4.20;99.90;;;;;;5061794;28;20715;-71
2024/02/27 06:30:31;;;;;;;7.88;5.28;;;4.20;99.90;;;;;;5028031;28;20138;-71
2024/02/27 06:32:56;;;;;;;10.00;5.28;;;4.20;99.90;;;;;;5055695;28;20495;-71
2024/02/27 06:35:24;;;;;;;8.48;5.18;;;4.20;99.90;;;;;;5050359;28;20048;-71
2024/02/27 06:37:49;;;;;;;12.27;4.88;;;4.20;99.90;;;;;;5046249;28;20047;-71
2024/02/27 06:40:16;;;;;;;8.48;4.85;;;4.10;99.90;;;;;;5056252;28;20056;-71
2024/02/27 06:42:43;;;;;;;8.40;5.50;;;4.10;99.90;;;;;;5066618;28;20060;-71
2024/02/27 06:45:10;;;;;;;8.35;5.13;;;4.00;99.90;;;;;;5063847;28;20627;-72
2024/02/27 06:47:42;;;;;;;14.02;5.45;;;4.00;99.90;;;;;;5044773;28;20049;-71
2024/02/27 06:50:12;;;;;;;7.55;5.13;;;4.10;99.90;;;;;;5048970;28;20138;-71
2024/02/27 06:52:39;;;;;;;6.10;4.88;;;4.10;99.90;;;;;;5033052;28;20041;-71
2024/02/27 06:55:05;;;;;;;7.53;4.90;;;4.10;99.90;;;;;;5042168;28;20563;-71
2024/02/27 06:57:34;;;;;;;7.68;5.05;;;4.10;99.90;;;;;;5025515;28;20620;-71
2024/02/27 07:00:04;;;;;;;5.47;4.65;;;4.10;99.90;;;;;;5029368;28;20130;-71
2024/02/27 07:02:30;;;;;;;12.20;4.55;;;4.10;99.90;;;;;;5043805;28;20142;-71
2024/02/27 07:04:56;;;;;;;7.32;5.20;;;4.20;99.90;;;;;;5043054;28;20484;-71
2024/02/27 07:07:22;;;;;;;6.30;5.07;;;4.20;99.90;;;;;;5047956;28;20052;-72
2024/02/27 07:09:47;;;;;;;11.63;4.43;;;4.20;99.90;;;;;;5053196;28;20049;-71
2024/02/27 07:12:13;;;;;;;6.03;4.10;;;4.20;99.90;;;;;;5041447;28;20056;-71
2024/02/27 07:14:41;;;;;;;5.40;4.30;;;4.20;99.90;;;;;;5044624;28;20510;-72
2024/02/27 07:17:07;;;;;;;6.93;4.28;;;4.30;99.90;;;;;;5065070;28;20037;-71
2024/02/27 07:19:32;;;;;;;7.22;4.65;;;4.30;99.90;;;;;;5029997;28;20101;-72
2024/02/27 07:21:58;;;;;;;6.50;4.15;;;4.30;99.90;;;;;;5046901;28;20044;-71
2024/02/27 07:24:24;;;;;;;5.90;3.80;;;4.30;99.90;;;;;;5042471;28;20084;-71
2024/02/27 07:26:50;;;;;;;4.28;3.70;;;4.30;99.90;;;;;;5029206;28;20185;-71
2024/02/27 07:29:15;;;;;;;4.22;3.60;;;4.30;99.90;;;;;;5046082;28;20139;-71
2024/02/27 07:31:43;;;;;;;6.05;3.55;;;4.30;99.90;;;;;;5042979;28;20060;-71
2024/02/27 07:34:11;;;;;;;3.35;3.03;;;4.20;99.90;;;;;;5044646;28;20055;-71
2024/02/27 07:36:37;;;;;;;4.20;3.33;;;4.20;99.90;;;;;;5046414;28;20090;-71
2024/02/27 07:39:02;;;;;;;5.10;3.80;;;4.20;99.90;;;;;;5042067;28;20048;-71
2024/02/27 07:41:28;;;;;;;4.07;3.38;;;4.20;99.90;;;;;;5048235;28;20060;-71
2024/02/27 07:43:54;;;;;;;4.80;3.60;;;4.20;99.90;;;;;;5041376;28;20091;-71
2024/02/27 07:46:20;;;;;;;4.85;3.42;;;4.30;99.90;;;;;;5043722;28;20052;-72
2024/02/27 07:48:46;;;;;;;10.25;3.80;;;4.30;99.90;;;;;;5045310;28;20499;-71
2024/02/27 07:51:25;;;;;;;7.40;3.90;;;4.40;99.90;;;;;;5053279;28;20060;-71
2024/02/27 07:53:51;;;;;;;4.40;3.65;;;4.40;99.90;;;;;;5059894;28;20036;-71
2024/02/27 07:56:18;;;;;;;4.90;3.70;;;4.50;99.90;;;;;;5053311;28;20083;-71
2024/02/27 07:58:43;;;;;;;5.07;3.65;;;4.40;99.90;;;;;;5032733;28;20250;-71
2024/02/27 08:01:09;;;;;;;4.80;3.20;;;4.40;99.90;;;;;;5036330;28;20045;-71
2024/02/27 08:03:36;;;;;;;3.58;3.28;;;4.30;99.90;;;;;;5032177;28;20487;-71
2024/02/27 08:06:02;;;;;;;5.30;3.83;;;4.30;99.90;;;;;;5037922;28;20490;-71
2024/02/27 08:08:28;;;;;;;4.03;3.58;;;4.40;99.90;;;;;;5014753;28;20438;-71
2024/02/27 08:10:58;;;;;;;4.95;3.67;;;4.50;99.90;;;;;;5057529;28;20124;-71
2024/02/27 08:13:23;;;;;;;5.18;4.18;;;4.50;99.90;;;;;;5041567;28;20053;-71
2024/02/27 08:15:50;;;;;;;4.68;3.55;;;4.60;99.90;;;;;;5010595;28;20723;-71
2024/02/27 08:18:16;;;;;;;4.80;3.65;;;4.60;99.90;;;;;;5038850;28;20052;-71
2024/02/27 08:20:42;;;;;;;5.50;3.33;;;4.70;99.90;;;;;;5045083;28;20111;-71
2024/02/27 08:23:11;;;;;;;4.65;3.83;;;4.70;99.90;;;;;;5000079;28;20049;-71
2024/02/27 08:25:37;;;;;;;5.22;3.60;;;4.80;99.90;;;;;;5029179;28;20083;-71
2024/02/27 08:28:03;;;;;;;3.85;3.55;;;4.80;99.90;;;;;;5016324;28;20122;-72
2024/02/27 08:30:29;;;;;;;4.07;2.97;;;4.90;99.90;;;;;;5036349;28;20037;-71
2024/02/27 08:32:55;;;;;;;4.55;3.80;;;5.00;99.90;;;;;;5045043;28;20036;-71
2024/02/27 08:35:21;;;;;;;4.20;3.70;;;5.10;99.90;;;;;;5013308;28;20391;-71
2024/02/27 08:37:47;;;;;;;4.13;3.75;;;5.20;99.90;;;;;;5034878;28;20122;-71
2024/02/27 08:40:12;;;;;;;7.97;3.80;;;5.30;99.90;;;;;;4994278;28;20140;-71
2024/02/27 08:42:39;;;;;;;5.75;3.85;;;5.30;99.90;;;;;;5020842;28;20206;-72
2024/02/27 08:45:06;;;;;;;11.07;4.40;;;5.40;99.90;;;;;;5030069;28;20043;-71
2024/02/27 08:47:32;;;;;;;4.57;4.13;;;5.40;99.90;;;;;;5040726;28;20446;-71
2024/02/27 08:49:58;;;;;;;5.55;4.40;;;5.50;99.90;;;;;;4997698;28;20047;-71
2024/02/27 08:52:24;;;;;;;6.22;4.35;;;5.50;99.90;;;;;;5053089;28;20048;-71
2024/02/27 08:54:50;;;;;;;5.45;4.22;;;5.50;99.90;;;;;;5044871;28;20044;-71
2024/02/27 08:57:15;;;;;;;8.15;4.90;;;5.60;99.90;;;;;;5014000;28;20050;-71
2024/02/27 08:59:44;;;;;;;5.35;4.40;;;5.70;99.90;;;;;;5028343;28;20054;-71
2024/02/27 09:02:09;;;;;;;5.30;4.35;;;5.80;99.90;;;;;;5029287;28;20044;-70
2024/02/27 09:04:35;;;;;;;5.53;3.97;;;5.80;99.90;;;;;;5047200;28;20051;-71
2024/02/27 09:07:01;;;;;;;4.63;4.22;;;5.70;99.90;;;;;;5037198;28;20535;-71
2024/02/27 09:09:27;;;;;;;8.90;4.97;;;5.70;99.90;;;;;;5026002;28;20053;-71
2024/02/27 09:11:53;;;;;;;6.45;5.28;;;5.80;99.90;;;;;;5050648;28;20048;-70
2024/02/27 09:14:19;;;;;;;9.63;4.55;;;5.90;99.90;;;;;;5040884;28;20056;-70
2024/02/27 09:16:45;;;;;;;7.35;4.50;;;6.00;99.90;;;;;;5069205;28;20047;-71
2024/02/27 09:19:11;;;;;;;5.68;5.07;;;6.20;99.90;;;;;;5034665;28;20053;-70
2024/02/27 09:21:36;;;;;;;7.32;4.88;;;6.20;99.90;;;;;;5039227;28;20076;-71
2024/02/27 09:24:04;;;;;;;6.07;5.47;;;6.30;99.90;;;;;;5053631;28;20060;-70
2024/02/27 09:26:29;;;;;;;5.50;4.97;;;6.30;99.90;;;;;;5046706;28;20049;-70
2024/02/27 09:28:56;;;;;;;9.32;5.97;;;6.20;99.90;;;;;;5046159;28;20052;-70
2024/02/27 09:31:22;;;;;;;8.43;5.90;;;6.10;99.90;;;;;;5057975;28;20140;-70
2024/02/27 09:33:48;;;;;;;8.75;6.03;;;6.10;99.90;;;;;;5051959;28;20505;-70
2024/02/27 09:36:13;;;;;;;8.75;6.00;;;6.00;99.90;;;;;;5060316;28;20446;-70
2024/02/27 09:38:39;;;;;;;7.38;5.93;;;5.90;99.90;;;;;;5053482;28;20068;-70
2024/02/27 09:41:05;;;;;;;8.38;5.82;;;5.90;99.90;;;;;;5030817;28;20049;-70
2024/02/27 09:43:31;;;;;;;6.93;5.60;;;5.90;99.90;;;;;;5042757;28;20081;-70
2024/02/27 09:45:58;;;;;;;11.02;6.25;;;5.80;99.90;;;;;;5039629;28;20048;-71
2024/02/27 09:48:30;;;;;;;9.68;5.55;;;5.90;99.90;;;;;;5056883;28;20136;-70
2024/02/27 09:50:56;;;;;;;10.70;5.68;;;5.80;99.90;;;;;;5049960;28;20129;-70
2024/02/27 09:53:23;;;;;;;7.22;6.00;;;5.80;99.90;;;;;;5027398;28;20061;-70
2024/02/27 09:55:51;;;;;;;7.40;5.53;;;5.70;99.90;;;;;;5034001;28;20067;-70
2024/02/27 09:58:19;;;;;;;7.40;5.75;;;5.70;99.90;;;;;;5060445;28;20618;-71
2024/02/27 10:00:46;;;;;;;8.50;5.80;;;5.80;99.90;;;;;;5052521;28;20044;-70
2024/02/27 10:03:14;;;;;;;8.80;6.38;;;5.80;99.90;;;;;;5047604;28;20044;-70
2024/02/27 10:05:41;;;;;;;7.40;5.50;;;5.80;99.90;;;;;;5048034;28;20501;-70
2024/02/27 10:08:14;;;;;;;7.78;6.07;;;5.70;99.90;;;;;;5047645;28;20048;-70
2024/02/27 10:10:41;;;;;;;7.57;5.85;;;5.70;99.90;;;;;;5056547;28;20048;-70
2024/02/27 10:13:07;;;;;;;5.78;5.20;;;5.60;99.90;;;;;;5060915;28;20040;-70
2024/02/27 10:15:33;;;;;;;6.18;5.57;;;5.60;99.90;;;;;;5034397;28;20086;-70
2024/02/27 10:17:59;;;;;;;8.13;6.00;;;5.60;99.90;;;;;;5043011;28;20088;-69
2024/02/27 10:20:28;;;;;;;8.57;6.65;;;5.50;99.90;;;;;;5043625;28;20064;-69
2024/02/27 10:22:56;;;;;;;6.75;5.70;;;5.50;99.90;;;;;;5069039;28;20044;-69
2024/02/27 10:25:27;;;;;;;9.20;6.85;;;5.60;99.90;;;;;;5046176;28;20045;-70
2024/02/27 10:27:54;;;;;;;14.55;6.03;;;5.50;99.90;;;;;;5047644;28;20063;-69
2024/02/27 10:30:22;;;;;;;10.85;6.88;;;5.40;99.90;;;;;;5044313;28;20194;-70
2024/02/27 10:32:49;;;;;;;13.20;7.47;;;5.30;99.90;;;;;;5061337;28;20148;-69
2024/02/27 10:35:16;;;;;;;11.25;7.20;;;5.30;99.90;;;;;;5055469;28;20094;-69
2024/02/27 10:37:43;;;;;;;9.68;6.65;;;5.30;99.90;;;;;;5062512;28;20145;-70
2024/02/27 10:40:11;;;;;;;12.20;8.25;;;5.30;99.90;;;;;;5051537;28;20502;-69
2024/02/27 10:42:42;;;;;;;9.95;7.50;;;5.30;99.90;;;;;;5054034;28;20045;-69
2024/02/27 10:45:08;;;;;;;;;;;5.20;99.90;;;;;;5029309;28;20049;-70
2024/02/27 10:47:34;;;;;;;10.88;7.65;;;5.10;99.90;;;;;;5060516;28;19947;-69
2024/02/27 10:50:06;;;;;;;11.50;7.82;;;5.20;99.90;;;;;;5040991;28;20554;-69
2024/02/27 10:52:35;;;;;;;11.32;8.27;;;5.20;99.90;;;;;;5060272;28;20063;-69
2024/02/27 10:55:01;;;;;;;10.18;8.00;;;5.20;99.90;;;;;;5036407;28;20047;-70
2024/02/27 10:57:27;;;;;;;14.43;8.70;;;5.30;99.90;;;;;;5064271;28;20094;-69
2024/02/27 10:59:55;;;;;;;15.45;8.85;;;5.30;99.90;;;;;;5048545;28;20350;-69
2024/02/27 11:02:21;;;;;;;12.85;8.40;;;5.30;99.90;;;;;;5035110;28;20648;-69
2024/02/27 11:04:51;;;;;;;11.75;8.63;;;5.30;99.90;;;;;;5046379;28;20088;-69
2024/02/27 11:07:17;;;;;;;9.93;6.53;;;5.20;99.90;;;;;;5046359;28;20521;-69
2024/02/27 11:09:44;;;;;;;13.25;8.75;;;5.20;99.90;;;;;;5064131;28;20071;-69
2024/02/27 11:12:19;;;;;;;11.73;8.50;;;5.10;99.90;;;;;;5061407;28;20449;-69
2024/02/27 11:14:50;;;;;;;10.35;7.63;;;5.10;99.90;;;;;;5061466;28;20452;-69
2024/02/27 11:17:22;;;;;;;12.88;7.93;;;5.00;99.90;;;;;;5050652;28;20040;-69
2024/02/27 11:19:52;;;;;;;13.18;8.60;;;4.90;99.90;;;;;;5049977;28;20052;-69
2024/02/27 11:22:19;;;;;;;;;;;4.90;99.90;;;;;;5059940;28;20049;-69
2024/02/27 11:24:46;;;;;;;13.18;8.57;;;4.80;99.90;;;;;;5057844;28;20271;-69
2024/02/27 11:27:14;;;;;;;17.02;9.35;;;4.80;99.90;;;;;;5030294;28;20086;-69
2024/02/27 11:29:41;;;;;;;13.18;7.97;;;4.80;99.90;;;;;;5048137;28;20044;-68
2024/02/27 11:32:08;;;;;;;12.02;8.55;;;4.80;99.90;;;;;;5065442;28;20083;-69
2024/02/27 11:34:34;;;;;;;12.52;9.57;;;4.90;99.90;;;;;;5050398;28;20044;-68
2024/02/27 11:37:13;;;;;;;12.77;9.05;;;4.90;99.90;;;;;;5043338;28;20553;-68
2024/02/27 11:39:39;;;;;;;14.35;8.57;;;5.00;99.90;;;;;;5053997;28;20504;-69
2024/02/27 11:42:05;;;;;;;16.88;9.38;;;5.00;99.90;;;;;;5038050;28;20047;-69
2024/02/27 11:44:31;;;;;;;13.25;8.73;;;5.10;99.90;;;;;;5026976;28;20509;-69
2024/02/27 11:46:57;;;;;;;14.15;8.90;;;5.10;99.90;;;;;;5031180;28;20036;-69
2024/02/27 11:49:39;;;;;;;12.60;8.18;;;5.10;99.90;;;;;;5058731;28;20452;-69
2024/02/27 11:52:07;;;;;;;15.27;9.18;;;5.10;99.90;;;;;;5048392;28;20430;-69
2024/02/27 11:54:35;;;;;;;16.77;8.95;;;5.10;99.90;;;;;;5045127;28;20486;-69
2024/02/27 11:57:05;;;;;;;15.38;9.70;;;5.10;99.90;;;;;;5043648;28;20368;-69
2024/02/27 11:59:31;;;;;;;15.27;9.52;;;5.10;99.90;;;;;;5050106;28;20108;-69
2024/02/27 12:02:06;;;;;;;16.65;9.73;;;5.10;99.90;;;;;;5031517;28;20140;-69
2024/02/27 12:04:32;;;;;;;14.60;9.30;;;5.20;99.90;;;;;;5043788;28;20056;-69
2024/02/27 12:06:57;;;;;;;16.92;9.18;;;5.20;99.90;;;;;;5031640;28;20044;-69
2024/02/27 12:09:25;;;;;;;14.77;8.63;;;5.10;99.90;;;;;;5049268;28;20061;-69
2024/02/27 12:11:52;;;;;;;15.13;9.35;;;5.10;99.90;;;;;;5043807;28;20057;-69
2024/02/27 12:14:19;;;;;;;15.45;9.25;;;5.10;99.90;;;;;;5054314;28;20052;-69
2024/02/27 12:16:45;;;;;;;18.30;10.57;;;5.10;99.90;;;;;;5039766;28;20033;-69
2024/02/27 12:19:11;;;;;;;13.52;9.52;;;5.10;99.90;;;;;;5039913;28;20091;-68
2024/02/27 12:21:37;;;;;;;14.93;9.13;;;5.10;99.90;;;;;;5027260;28;20052;-69
2024/02/27 12:24:14;;;;;;;15.90;8.63;;;5.10;99.90;;;;;;5024249;28;20380;-69
2024/02/27 12:26:43;;;;;;;15.88;9.90;;;5.20;99.90;;;;;;5039914;28;20048;-69
2024/02/27 12:29:09;;;;;;;16.40;9.10;;;5.20;99.90;;;;;;5040475;28;20821;-69
2024/02/27 12:31:36;;;;;;;16.80;9.68;;;5.20;99.90;;;;;;5042326;28;20048;-69
2024/02/27 12:34:05;;;;;;;17.05;9.68;;;5.20;99.90;;;;;;5049652;28;20043;-69
2024/02/27 12:36:32;;;;;;;20.90;10.00;;;5.20;99.90;;;;;;5053558;28;20037;-69
2024/02/27 12:38:57;;;;;;;15.98;9.85;;;5.20;99.90;;;;;;5053475;28;20541;-69
2024/02/27 12:41:24;;;;;;;17.38;9.85;;;5.20;99.90;;;;;;5052045;28;20135;-69
2024/02/27 12:43:49;;;;;;;17.25;9.63;;;5.10;99.90;;;;;;5052487;28;20041;-69
2024/02/27 12:46:16;;;;;;;17.02;10.50;;;5.00;99.90;;;;;;5048757;28;20560;-69
2024/02/27 12:48:43;;;;;;;17.70;9.93;;;5.00;99.90;;;;;;5065131;28;20048;-69
2024/02/27 12:51:10;;;;;;;18.85;9.95;;;5.00;99.90;;;;;;5055471;28;20132;-69
2024/02/27 12:53:37;;;;;;;17.30;10.52;;;5.00;99.90;;;;;;5057758;28;20040;-69